createdAt,value
2023-02-04T00:02:21.318Z,99958.46
2023-02-04T00:04:51.533Z,99963.34
2023-02-04T00:07:21.428Z,99960.07
2023-02-04T00:09:51.877Z,99963.89
2023-02-04T00:12:23.399Z,99963.75
2023-02-04T00:14:54.136Z,99958.86
2023-02-04T00:17:24.477Z,99956.03
2023-02-04T00:19:54.145Z,99962.05
2023-02-04T00:22:23.300Z,99964.88
2023-02-04T00:24:53.562Z,99958.65
2023-02-04T00:27:23.056Z,99958.79
2023-02-04T00:29:52.749Z,99957.58
2023-02-04T00:32:22.564Z,99963.18
2023-02-04T00:34:53.736Z,99958.43
2023-02-04T00:37:23.485Z,99952.34
2023-02-04T00:39:53.015Z,99953.33
2023-02-04T00:42:23.201Z,99950.99
2023-02-04T00:44:53.131Z,99955.38
2023-02-04T00:47:22.820Z,99954.04
2023-02-04T00:49:51.652Z,99949.51
2023-02-04T00:52:21.389Z,99951.20
2023-02-04T00:54:50.743Z,99943.13
2023-02-04T00:57:20.142Z,99947.53
2023-02-04T00:59:49.149Z,99946.10
2023-02-04T01:02:19.146Z,99949.42
2023-02-04T01:04:48.783Z,99948.08
2023-02-04T01:07:21.246Z,99953.74
2023-02-04T01:09:51.205Z,99954.38
2023-02-04T01:12:22.840Z,99957.34
2023-02-04T01:14:52.451Z,99956.13
2023-02-04T01:17:24.578Z,99959.53
2023-02-04T01:19:55.654Z,99955.01
2023-02-04T01:22:25.282Z,99952.23
2023-02-04T01:24:56.637Z,99951.25
2023-02-04T01:27:45.730Z,99956.34
2023-02-04T01:30:17.116Z,99952.39
2023-02-04T01:32:48.314Z,99948.44
2023-02-04T01:35:17.820Z,99940.72
2023-02-04T01:37:47.574Z,99940.94
2023-02-04T01:40:17.589Z,99949.51
2023-02-04T01:42:49.112Z,99944.12
2023-02-04T01:45:18.892Z,99952.55
2023-02-04T01:47:48.985Z,99948.16
2023-02-04T01:50:18.509Z,99944.27
2023-02-04T01:52:48.130Z,99946.59
2023-02-04T01:55:24.612Z,99945.53
2023-02-04T01:57:55.680Z,99952.17
2023-02-04T02:00:31.930Z,99949.77
2023-02-04T02:03:03.388Z,99953.22
2023-02-04T02:05:48.744Z,99944.94
2023-02-04T02:08:18.709Z,99945.70
2023-02-04T02:10:48.832Z,99940.32
2023-02-04T02:13:18.690Z,99942.63
2023-02-04T02:15:48.477Z,99946.16
2023-02-04T02:18:19.120Z,99942.88
2023-02-04T02:20:48.346Z,99950.09
2023-02-04T02:23:49.557Z,99951.52
2023-02-04T02:26:21.058Z,99950.61
2023-02-04T02:28:52.260Z,99953.88
2023-02-04T02:31:22.288Z,99959.48
2023-02-04T02:33:51.910Z,99952.39
2023-02-04T02:36:22.907Z,99952.67
2023-02-04T02:38:55.326Z,99950.69
2023-02-04T02:41:24.513Z,99951.12
2023-02-04T02:43:55.857Z,99945.83
2023-02-04T02:46:25.264Z,99955.32
2023-02-04T02:48:55.459Z,99956.39
2023-02-04T02:51:25.895Z,99959.88
2023-02-04T02:53:55.409Z,99953.14
2023-02-04T02:56:24.853Z,99948.11
2023-02-04T02:58:54.776Z,99952.23
2023-02-04T03:01:27.104Z,99951.23
2023-02-04T03:03:56.930Z,99960.38
2023-02-04T03:06:26.582Z,99954.00
2023-02-04T03:08:56.905Z,99955.07
2023-02-04T03:11:32.849Z,99960.67
2023-02-04T03:14:03.422Z,99952.80
2023-02-04T03:16:33.400Z,99960.03
2023-02-04T03:19:03.075Z,99961.73
2023-02-04T03:21:34.072Z,99966.98
2023-02-04T03:24:06.276Z,99959.40
2023-02-04T03:26:35.657Z,99964.64
2023-02-04T03:29:08.271Z,99964.64
2023-02-04T03:31:38.401Z,99965.28
2023-02-04T03:34:07.427Z,99964.92
2023-02-04T03:36:36.787Z,99967.40
2023-02-04T03:39:06.865Z,99962.87
2023-02-04T03:41:36.477Z,99970.73
2023-02-04T03:44:06.031Z,99969.38
2023-02-04T03:46:35.476Z,99974.48
2023-02-04T03:49:05.960Z,99973.00
2023-02-04T03:51:36.363Z,99973.71
2023-02-04T03:54:06.377Z,99976.90
2023-02-04T03:56:37.970Z,99974.56
2023-02-04T03:59:07.298Z,99978.24
2023-02-04T04:01:40.986Z,99972.01
2023-02-04T04:04:10.499Z,99971.73
2023-02-04T04:06:41.513Z,99971.73
2023-02-04T04:09:11.773Z,99978.81
2023-02-04T04:11:42.768Z,99980.44
2023-02-04T04:14:13.996Z,99985.89
2023-02-04T04:16:43.857Z,99989.08
2023-02-04T04:19:14.822Z,99994.46
2023-02-04T04:21:45.646Z,100002.05
2023-02-04T04:24:16.366Z,99989.08
2023-02-04T04:26:47.099Z,99993.75
2023-02-04T04:29:17.026Z,99994.25
2023-02-04T04:31:47.783Z,99996.23
2023-02-04T04:34:17.321Z,99999.91
2023-02-04T04:36:49.647Z,100002.74
2023-02-04T04:39:22.401Z,100003.09
2023-02-04T04:41:52.552Z,100010.11
2023-02-04T04:44:22.853Z,100008.33
2023-02-04T04:46:52.309Z,100005.63
2023-02-04T04:49:21.983Z,100011.51
2023-02-04T04:51:51.992Z,100010.52
2023-02-04T04:54:21.175Z,100010.16
2023-02-04T04:56:51.783Z,100017.74
2023-02-04T04:59:21.676Z,100019.09
2023-02-04T05:01:51.323Z,100023.48
2023-02-04T05:04:21.918Z,100026.53
2023-02-04T05:06:51.596Z,100022.85
2023-02-04T05:09:22.303Z,100031.06
2023-02-04T05:11:52.008Z,100030.35
2023-02-04T05:14:22.056Z,100032.33
2023-02-04T05:16:52.035Z,100032.33
2023-02-04T05:19:41.492Z,100037.84
2023-02-04T05:22:10.905Z,100043.38
2023-02-04T05:24:40.392Z,100052.21
2023-02-04T05:27:11.084Z,100057.59
2023-02-04T05:29:41.359Z,100057.59
2023-02-04T05:32:12.328Z,100056.97
2023-02-04T05:34:42.500Z,100051.45
2023-02-04T05:37:12.206Z,100060.38
2023-02-04T05:39:41.613Z,100066.74
2023-02-04T05:42:10.513Z,100068.09
2023-02-04T05:44:40.913Z,100070.15
2023-02-04T05:47:10.406Z,100075.89
2023-02-04T05:49:41.368Z,100076.25
2023-02-04T05:52:11.658Z,100077.32
2023-02-04T05:54:41.457Z,100084.19
2023-02-04T05:57:10.944Z,100087.51
2023-02-04T05:59:40.513Z,100098.50
2023-02-04T06:02:09.960Z,100098.86
2023-02-04T06:04:39.355Z,100100.70
2023-02-04T06:07:08.927Z,100107.56
2023-02-04T06:09:39.779Z,100106.35
2023-02-04T06:12:10.491Z,100109.41
2023-02-04T06:14:40.173Z,100102.05
2023-02-04T06:17:11.161Z,100112.31
2023-02-04T06:19:41.113Z,100111.33
2023-02-04T06:22:11.203Z,100111.24
2023-02-04T06:24:42.753Z,100118.33
2023-02-04T06:27:11.957Z,100119.90
2023-02-04T06:29:41.192Z,100131.52
2023-02-04T06:32:10.641Z,100132.64
2023-02-04T06:34:40.252Z,100126.67
2023-02-04T06:37:09.967Z,100129.01
2023-02-04T06:39:40.338Z,100124.48
2023-02-04T06:42:10.413Z,100131.48
2023-02-04T06:44:40.146Z,100136.36
2023-02-04T06:47:09.322Z,100145.16
2023-02-04T06:49:39.245Z,100141.13
2023-02-04T06:52:08.919Z,100141.84
2023-02-04T06:54:39.767Z,100154.67
2023-02-04T06:57:09.475Z,100153.68
2023-02-04T06:59:39.948Z,100153.81
2023-02-04T07:02:11.070Z,100161.76
2023-02-04T07:04:42.143Z,100152.20
2023-02-04T07:07:12.035Z,100159.78
2023-02-04T07:09:42.532Z,100161.98
2023-02-04T07:12:12.042Z,100162.12
2023-02-04T07:14:43.023Z,100163.59
2023-02-04T07:17:14.067Z,100162.74
2023-02-04T07:19:44.421Z,100164.81
2023-02-04T07:22:13.709Z,100168.44
2023-02-04T07:24:45.225Z,100173.69
2023-02-04T07:27:14.613Z,100170.64
2023-02-04T07:29:44.120Z,100176.79
2023-02-04T07:32:13.910Z,100168.00
2023-02-04T07:34:44.668Z,100174.01
2023-02-04T07:37:15.113Z,100180.87
2023-02-04T07:39:44.576Z,100178.31
2023-02-04T07:42:15.869Z,100172.92
2023-02-04T07:44:48.419Z,100171.22
2023-02-04T07:47:18.668Z,100178.31
2023-02-04T07:49:48.600Z,100178.17
2023-02-04T07:52:18.520Z,100173.91
2023-02-04T07:54:48.301Z,100172.92
2023-02-04T07:57:19.641Z,100182.08
2023-02-04T07:59:48.243Z,100185.49
2023-02-04T08:02:17.223Z,100188.27
2023-02-04T08:04:47.059Z,100190.70
2023-02-04T08:07:18.182Z,100192.27
2023-02-04T08:09:47.808Z,100192.98
2023-02-04T08:12:17.591Z,100190.66
2023-02-04T08:14:47.885Z,100195.41
2023-02-04T08:17:18.176Z,100191.23
2023-02-04T08:19:47.694Z,100201.88
2023-02-04T08:22:19.217Z,100197.92
2023-02-04T08:24:48.789Z,100200.62
2023-02-04T08:27:19.339Z,100201.11
2023-02-04T08:29:49.593Z,100211.75
2023-02-04T08:32:20.226Z,100213.68
2023-02-04T08:34:51.043Z,100212.59
2023-02-04T08:37:20.258Z,100213.08
2023-02-04T10:15:22.103Z,100258.56
2023-02-04T10:17:56.094Z,100258.47
2023-02-04T10:20:25.893Z,100256.01
2023-02-04T10:22:56.075Z,100262.97
2023-02-04T10:25:26.743Z,100268.45
2023-02-04T10:28:00.492Z,100268.42
2023-02-04T10:30:34.025Z,100273.80
2023-02-04T10:33:15.283Z,100273.57
2023-02-04T10:35:48.174Z,100280.43
2023-02-04T10:38:16.625Z,100281.55
2023-02-04T10:40:47.047Z,100291.32
2023-02-04T10:43:21.612Z,100296.21
2023-02-04T10:45:58.583Z,100297.43
2023-02-04T10:48:30.089Z,100295.33
2023-02-04T10:50:59.425Z,100298.75
2023-02-04T10:53:46.579Z,100301.05
2023-02-04T10:56:20.691Z,100311.19
2023-02-04T10:58:50.111Z,100312.77
2023-02-04T11:01:18.889Z,100322.81
2023-02-04T11:03:48.857Z,100319.89
2023-02-04T11:06:23.854Z,100332.00
2023-02-04T11:08:54.975Z,100331.87
2023-02-04T11:11:25.901Z,100331.38
2023-02-04T11:13:59.313Z,100333.45
2023-02-04T11:16:32.566Z,100338.97
2023-02-04T11:19:12.583Z,100329.18
2023-02-04T11:21:45.375Z,100344.94
2023-02-04T11:24:20.089Z,100345.44
2023-02-04T11:26:51.698Z,100343.83
2023-02-04T11:29:37.306Z,100345.17
2023-02-04T11:32:35.825Z,100345.80
2023-02-04T11:35:18.911Z,100349.11
2023-02-04T11:37:49.109Z,100355.70
2023-02-04T11:40:30.274Z,100358.02
2023-02-04T11:43:11.364Z,100354.20
2023-02-04T11:45:40.353Z,100351.39
2023-02-04T11:48:20.240Z,100348.69
2023-02-04T11:50:58.815Z,100347.84
2023-02-04T11:53:31.644Z,100355.32
2023-02-04T11:56:02.214Z,100351.41
2023-02-04T11:58:31.326Z,100362.05
2023-02-04T12:01:00.221Z,100366.91
2023-02-04T12:03:31.505Z,100369.58
2023-02-04T12:06:00.466Z,100378.25
2023-02-04T12:08:33.824Z,100373.72
2023-02-04T12:11:12.132Z,100377.63
2023-02-04T12:13:52.029Z,100376.65
2023-02-04T12:16:23.802Z,100371.12
2023-02-04T12:18:54.951Z,100375.04
2023-02-04T12:21:24.090Z,100378.22
2023-02-04T12:23:52.940Z,100379.08
2023-02-04T12:26:22.034Z,100388.38
2023-02-04T12:28:50.689Z,100385.68
2023-02-04T12:31:19.840Z,100383.84
2023-02-04T12:33:48.926Z,100388.02
2023-02-04T12:36:17.991Z,100393.14
2023-02-04T12:38:47.069Z,100392.78
2023-02-04T12:41:16.523Z,100400.50
2023-02-04T12:43:46.477Z,100391.69
2023-02-04T12:46:15.022Z,100399.02
2023-02-04T12:48:43.885Z,100393.53
2023-02-04T12:51:14.792Z,100396.22
2023-02-04T12:53:43.719Z,100400.63
2023-02-04T12:56:12.696Z,100399.02
2023-02-04T12:58:41.633Z,100405.27
2023-02-04T13:01:10.264Z,100412.82
2023-02-04T13:03:39.778Z,100407.30
2023-02-04T13:06:08.599Z,100412.59
2023-02-04T13:08:37.878Z,100414.06
2023-02-04T13:11:07.005Z,100413.60
2023-02-04T13:13:36.700Z,100416.52
2023-02-04T13:16:08.952Z,100423.52
2023-02-04T13:18:39.274Z,100426.83
2023-02-04T13:21:08.317Z,100420.23
2023-02-04T13:23:37.422Z,100428.44
2023-02-04T13:26:08.609Z,100419.99
2023-02-04T13:28:37.415Z,100426.73
2023-02-04T13:31:07.513Z,100435.30
2023-02-04T13:33:37.639Z,100437.14
2023-02-04T13:36:10.098Z,100448.89
2023-02-04T13:38:42.430Z,100455.13
2023-02-04T13:41:11.656Z,100456.84
2023-02-04T13:43:40.800Z,100464.79
2023-02-04T13:46:10.369Z,100463.08
2023-02-04T13:48:39.152Z,100474.47
2023-02-04T13:51:09.761Z,100483.06
2023-02-04T13:53:39.020Z,100484.78
2023-02-04T13:56:09.282Z,100492.99
2023-02-04T13:58:39.667Z,100485.16
2023-02-04T14:01:08.459Z,100483.09
2023-02-04T14:03:37.675Z,100487.87
2023-02-04T14:06:07.250Z,100493.27
2023-02-04T14:08:36.185Z,100501.47
2023-02-04T14:11:07.388Z,100500.38
2023-02-04T14:13:38.092Z,100497.08
2023-02-04T14:16:09.463Z,100498.55
2023-02-04T14:18:38.289Z,100498.91
2023-02-04T14:21:07.750Z,100506.62
2023-02-04T14:23:39.076Z,100495.73
2023-02-04T14:26:08.118Z,100502.72
2023-02-04T14:28:37.438Z,100510.06
2023-02-04T14:31:07.439Z,100516.91
2023-02-04T14:33:37.368Z,100524.98
2023-02-04T14:36:06.765Z,100534.49
2023-02-04T14:38:35.815Z,100536.57
2023-02-04T14:41:04.890Z,100535.34
2023-02-04T14:43:35.631Z,100543.78
2023-02-04T14:46:08.016Z,100534.37
2023-02-04T14:48:37.768Z,100550.75
2023-02-04T14:51:07.172Z,100547.08
2023-02-04T14:53:35.911Z,100553.68
2023-02-04T14:56:04.926Z,100546.71
2023-02-04T14:58:34.100Z,100548.06
2023-02-04T15:01:03.055Z,100548.80
2023-02-04T15:03:37.580Z,100558.33
2023-02-04T15:06:08.334Z,100556.74
2023-02-04T15:08:37.423Z,100562.36
2023-02-04T15:11:08.129Z,100568.73
2023-02-04T15:13:38.271Z,100565.17
2023-02-04T15:16:07.341Z,100562.00
2023-02-04T15:18:36.990Z,100566.16
2023-02-04T15:21:07.935Z,100564.33
2023-02-04T15:23:36.976Z,100566.41
2023-02-04T15:26:06.128Z,100573.97
2023-02-04T15:28:37.069Z,100577.27
2023-02-04T15:31:05.945Z,100577.27
2023-02-04T15:33:36.163Z,100589.98
2023-02-04T15:36:06.102Z,100595.84
2023-02-04T15:38:35.403Z,100601.58
2023-02-04T15:41:06.100Z,100601.58
2023-02-04T15:43:35.777Z,100601.58
2023-02-04T15:46:06.346Z,100607.56
2023-02-04T15:48:35.680Z,100601.94
2023-02-04T15:51:05.653Z,100600.85
2023-02-04T15:53:37.510Z,100602.23
2023-02-04T15:56:07.299Z,100604.91
2023-02-04T15:58:37.790Z,100612.25
2023-02-04T16:01:06.847Z,100626.67
2023-02-04T17:28:58.212Z,100682.30
2023-02-04T17:31:28.856Z,100682.53
2023-02-04T17:33:59.590Z,100679.84
2023-02-04T17:36:31.168Z,100682.27
2023-02-04T17:39:00.798Z,100685.56
2023-02-04T17:41:30.950Z,100688.73
2023-02-04T17:44:01.142Z,100687.87
2023-02-04T17:46:31.336Z,100692.51
2023-02-04T17:49:01.583Z,100697.13
2023-02-04T17:51:30.978Z,100690.79
2023-02-04T17:54:00.155Z,100696.42
2023-02-04T17:56:29.701Z,100700.56
2023-02-04T17:58:58.541Z,100710.45
2023-02-04T18:01:27.567Z,100711.20
2023-02-04T18:03:57.147Z,100713.41
2023-02-04T18:06:29.423Z,100721.20
2023-02-04T18:09:03.243Z,100719.34
2023-02-04T18:11:36.156Z,100725.31
2023-02-04T18:14:17.150Z,100733.00
2023-02-04T18:16:46.286Z,100732.41
2023-02-04T18:19:21.552Z,100737.03
2023-02-04T18:21:51.075Z,100744.56
2023-02-04T18:24:31.518Z,100742.70
2023-02-04T18:27:01.905Z,100745.02
2023-02-04T18:29:37.078Z,100751.84
2023-02-04T18:32:26.696Z,100753.55
2023-02-04T18:34:59.241Z,100750.27
2023-02-04T18:37:36.320Z,100759.19
2023-02-04T18:40:17.644Z,100754.41
2023-02-04T18:42:46.579Z,100759.89
2023-02-04T18:45:27.574Z,100760.97
2023-02-04T18:48:00.835Z,100754.59
2023-02-04T18:50:32.871Z,100761.90
2023-02-04T18:53:18.352Z,100763.35
2023-02-04T18:55:54.946Z,100766.63
2023-02-04T18:58:31.792Z,100763.20
2023-02-04T19:01:09.844Z,100770.02
2023-02-04T19:04:00.807Z,100767.81
2023-02-04T19:06:43.225Z,100779.53
2023-02-04T19:09:20.915Z,100775.05
2023-02-04T19:11:51.909Z,100782.94
2023-02-04T19:14:38.801Z,100776.45
2023-02-04T19:17:28.520Z,100783.16
2023-02-04T19:20:21.236Z,100784.61
2023-02-04T19:22:54.793Z,100784.71
2023-02-04T19:25:35.858Z,100786.65
2023-02-04T19:28:16.739Z,100796.52
2023-02-04T19:30:50.265Z,100794.81
2023-02-04T19:33:24.685Z,100788.80
2023-02-04T19:35:54.709Z,100799.53
2023-02-04T19:38:38.441Z,100795.23
2023-02-04T19:41:27.636Z,100796.47
2023-02-04T19:44:08.392Z,100800.50
2023-02-04T19:46:38.557Z,100804.84
2023-02-04T19:49:26.217Z,100803.61
2023-02-04T19:51:57.755Z,100803.34
2023-02-04T19:54:38.294Z,100804.52
2023-02-04T19:57:19.084Z,100805.59
2023-02-04T19:59:47.896Z,100815.84
2023-02-04T20:02:38.322Z,100816.43
2023-02-04T20:05:19.678Z,100812.12
2023-02-04T20:07:49.808Z,100811.75
2023-02-04T20:10:23.403Z,100816.74
2023-02-04T20:13:00.931Z,100812.83
2023-02-04T20:15:31.285Z,100830.27
2023-02-04T20:18:00.031Z,100830.27
2023-02-04T20:20:32.204Z,100821.67
2023-02-04T20:23:02.798Z,100827.41
2023-02-04T20:25:45.639Z,100818.98
2023-02-04T20:28:40.432Z,100824.63
2023-02-04T20:31:26.216Z,100821.36
2023-02-04T20:33:59.303Z,100824.41
2023-02-04T20:36:40.964Z,100828.55
2023-02-04T20:39:29.691Z,100827.52
2023-02-04T20:42:20.906Z,100820.27
2023-02-04T20:44:50.053Z,100820.20
2023-02-04T20:47:21.444Z,100825.19
2023-02-04T20:49:58.065Z,100830.76
2023-02-04T20:52:48.320Z,100840.52
2023-02-04T20:55:30.077Z,100839.77
2023-02-04T20:58:23.844Z,100840.35
2023-02-04T21:00:54.197Z,100838.63
2023-02-04T21:03:29.645Z,100838.25
2023-02-04T21:06:00.568Z,100849.08
2023-02-04T21:08:45.482Z,100850.33
2023-02-04T21:11:15.782Z,100856.65
2023-02-04T21:14:07.042Z,100848.33
2023-02-04T21:16:38.874Z,100851.87
2023-02-04T21:19:07.618Z,100842.41
2023-02-04T21:21:38.798Z,100850.17
2023-02-04T21:24:08.078Z,100859.18
2023-02-04T21:26:37.522Z,100857.36
2023-02-04T21:29:06.937Z,100862.52
2023-02-04T21:31:35.951Z,100861.56
2023-02-04T21:34:06.759Z,100868.16
2023-02-04T21:36:37.399Z,100872.46
2023-02-04T21:39:05.994Z,100873.32
2023-02-04T21:41:35.641Z,100876.48
2023-02-04T21:44:04.783Z,100872.77
2023-02-04T21:46:35.557Z,100872.00
2023-02-04T21:49:06.441Z,100863.48
2023-02-04T21:51:35.621Z,100868.74
2023-02-04T21:54:05.210Z,100873.93
2023-02-04T21:56:34.979Z,100881.59
2023-02-04T21:59:04.290Z,100863.98
2023-02-04T22:01:35.514Z,100866.29
2023-02-04T22:04:04.210Z,100870.69
2023-02-04T22:06:34.249Z,100882.00
2023-02-04T22:09:03.498Z,100866.69
2023-02-04T22:11:32.334Z,100869.19
2023-02-04T22:14:05.642Z,100870.43
2023-02-04T22:16:37.212Z,100882.80
2023-02-04T22:19:06.360Z,100892.08
2023-02-04T22:21:37.864Z,100887.77
2023-02-04T22:24:09.767Z,100886.93
2023-02-04T22:26:39.157Z,100891.05
2023-02-04T22:29:08.068Z,100887.70
2023-02-04T22:31:40.936Z,100884.36
2023-02-04T22:34:10.166Z,100890.30
2023-02-04T22:36:39.268Z,100887.33
2023-02-04T22:39:09.263Z,100893.55
2023-02-04T22:41:38.491Z,100896.03
2023-02-04T22:44:07.601Z,100886.36
2023-02-04T22:46:36.820Z,100881.96
2023-02-04T22:49:05.917Z,100885.70
2023-02-04T22:51:36.594Z,100886.56
2023-02-04T22:54:05.611Z,100880.52
2023-02-04T22:56:36.677Z,100880.91
2023-02-04T22:59:05.822Z,100888.19
2023-02-04T23:01:35.342Z,100885.30
2023-02-04T23:04:05.285Z,100890.09
2023-02-04T23:06:34.441Z,100891.43
2023-02-04T23:09:03.648Z,100893.63
2023-02-04T23:11:32.415Z,100883.77
2023-02-04T23:14:02.809Z,100890.84
2023-02-04T23:16:32.463Z,100893.44
2023-02-04T23:19:01.409Z,100894.09
2023-02-04T23:21:30.257Z,100888.16
2023-02-04T23:24:00.034Z,100890.63
2023-02-04T23:26:28.692Z,100894.45
2023-02-04T23:28:58.062Z,100889.00
2023-02-04T23:31:27.654Z,100895.80
2023-02-04T23:33:56.780Z,100887.38
2023-02-04T23:36:25.743Z,100889.09
2023-02-04T23:38:54.810Z,100890.62
2023-02-04T23:41:23.439Z,100892.92
2023-02-04T23:43:52.228Z,100896.94
2023-02-04T23:46:21.054Z,100899.42
2023-02-04T23:48:49.870Z,100893.78
2023-02-04T23:51:19.824Z,100890.34
2023-02-04T23:53:49.008Z,100901.72
2023-02-04T23:56:17.742Z,100894.06
2023-02-04T23:58:46.360Z,100893.86
